Ride Results

Tom Quilty Gold Cup (10-06-1978)
Ride distance: 160.0 km

Outcomes - Tom Quilty Gold Cup (10-06-1978)
Division No. of Entries Retired / DNE Completed Withdrawn Ineligible V/O Percentage Completed
OP 40 - 28 4 - 8 70.00%
Totals 40 - 28 4 - 8 70.00%
Results - Tom Quilty Gold Cup (10-06-1978)
No. Rider Horse Place Time Leg Speeds Total
Km/Hr
H/R bpm
Open
38 June Petersen Tequila 1 (BC) 13:26:51 13.9, 14.9, 13.3, 5.2 11.90 33, 40, 43, 45, 47 (Avg:43)
34 Lyn Dillon Grey Atom 2 13:27:21 14.7, 14.4, 13.3, 5.2 11.89 38, 42, 51, 52, 56 (Avg:50)
4 Sam Timms Tallyho 3 13:36:43 13.8, 14.1, 13.6, 5.2 11.75 30, 37, 54, 49, 49 (Avg:47)
37 Bob Sample Sharahd Sheek 4 13:38:00 12.1, 14.9, 14.1, 5.2 11.74 36, 44, 50, 55, 60 (Avg:52)
7 Larry Ross El Teco 5 14:00:33 13.0, 14.9, 11.9, 5.3 11.42 33, 40, 54, 48, 60 (Avg:50)
22 Patricia Hall Johnny 6 14:11:09 10.7, 13.7, 13.9, 5.6 11.28 37, 38, 40, 52, 57 (Avg:46)
24 Susan Ostle Karingal Rythm 7 14:11:41 10.4, 14.0, 13.9, 5.6 11.27 33, 40, 48, 52, 58 (Avg:49)
32 Sue May Karella Buckshot 8 14:27:53 12.4, 14.9, 11.4, 5.0 11.06 29, 35, 40, 35, 46 (Avg:39)
12 George Mann Hippy Hank 9 14:33:58 11.1, 14.4, 12.6, 5.0 10.98 38, 37, 44, 60, 42 (Avg:45)
14 Larry Maudsley Shenandoah Carmen 10 14:54:37 12.9, 13.7, 11.7, 4.7 10.73 40, 37, 54, 52, 53 (Avg:49)
9 Ali Smith Rockybar Mission 11 15:56:50 10.1, 13.1, 12.5, 4.2 10.03 36, 42, 46, 50, 52 (Avg:47)
2 Ross Dodt Rockybar Semali 12 15:57:25 10.1, 13.1, 12.5, 4.2 10.03 40, 42, 49, 60, 52 (Avg:50)
17 Sandra Himsley Ralvon Aeneas 13 16:09:19 11.6, 13.2, 10.6, 4.2 9.90 32, 39, 52, 50, 55 (Avg:49)
29 Wayne Parker Sham 14 16:10:10 13.4, 12.8, 11.9, 3.6 9.90 36, 41, 43, 51, 51 (Avg:46)
16 Pamela Kell Aladdin 15 17:19:23 10.3, 12.5, 12.0, 3.4 9.24 38, 42, 40, 45, 46 (Avg:43)
6 Felicity Stevenson Toomee 16 17:21:53 10.4, 13.6, 10.3, 3.5 9.21 38, 38, 42, 53, 42 (Avg:43)
10 Reg Kennedy Speedo 17 17:22:23 10.4, 13.5, 10.3, 3.5 9.21 45, 40, 54, 55, 52 (Avg:50)
8 Joyce Corbett Rob Roy 18 17:26:02 10.4, 13.0, 11.0, 3.4 9.18 40, 36, 56, 60, 54 (Avg:51)
40 Ray Jones Springmead Major 19 17:34:32 12.0, 13.5, 9.2, 3.4 9.10 37, 49, 47, 46, 46 (Avg:47)
31 Sue Harlum Gromyko 20 18:35:53 10.2, 13.0, 10.8, 2.8 8.60 32, 39, 40, 52, 48 (Avg:44)
13 Felicity Sheaves Cobber 21 18:51:33 10.9, 12.8, 9.7, 2.9 8.48 40, 48, 57, 56, 58 (Avg:54)
25 Terry Wood Mulwee Melody 22 19:49:18 9.5, 12.0, 9.0, 3.0 8.07 38, 47, 51, 52, 44 (Avg:48)
3 Betty Serpell Faraway Rikkara 23 19:51:52 10.2, 13.1, 8.6, 2.8 8.05 40, 40, 60, 56, 44 (Avg:50)
11 Joan Swift Tops 24 19:54:55 10.1, 12.5, 10.2, 2.5 8.03 36, 39, 52, 53, 49 (Avg:48)
1 Jim Dellas Rachel 25 20:02:00 10.4, 9.9, 8.8, 3.3 7.99 40, 50, 53, 58, 56 (Avg:54)
30 Daphne Phillips Star 26 20:03:30 11.2, 11.8, 10.7, 2.3 7.98 40, 42, 51, 60, 58 (Avg:52)
39 Carmen Batterham Tascara 27 20:07:04 9.5, 12.0, 8.2, 3.1 7.95 37, 46, 56, 52, 50 (Avg:51)
36 Vivian Hollins King 28 20:13:34 9.2, 12.0, 8.2, 3.1 7.91 33, 38, 46, 43, 40 (Avg:41)
27 Lindsay Brown Fancy Free Lame L4 0:00:00 9.5, 10.4, 9.4, 3.1 - 52, 40, 40, 52, 48 (Avg:45)
19 Ann Mcgeorge Wongaburra Matador Lame L4 0:00:00 13.7, 12.8, 11.9, 3.6 - 32, 37, 51, 49, 52 (Avg:47)
18 Tony Elphick Big Red Lame L3 0:00:00 9.1, 10.5, 9.3 - 36, 43, 46, 60 (Avg:49)
20 Leslie Lette Shurlee Metabolics L3 0:00:00 10.3, 13.1, 10.8 - 35, 38, 46, 52 (Avg:45)
15 Edward Swift Sharahd Twister Widthdrawn L3 0:00:00 - - 36, 46, 34, 60 (Avg:46)
21 Jane Blackett Eurunderee Tobias Widthdrawn L2 0:00:00 - - 36, 48, 53 (Avg:50)
26 Philip Blackley Prince Hussein Metabolics L2 0:00:00 9.5, 11.7 - 36, 46, 48 (Avg:47)
28 Peter Cole Jahzeel Lame L2 0:00:00 12.5, 13.0 - 36, 37, 55 (Avg:46)
33 Robyn Daines Prince Rakib Heart Rate L2 0:00:00 9.5, 10.4 - 36, 46, 70 (Avg:58)
5 Elsie De Landelles Gypsy Widthdrawn L2 0:00:00 - - 40, 44, 54 (Avg:49)
23 Judy Shore Jedda Heart Rate L2 0:00:00 10.8, 12.5 - 38, 48, 66 (Avg:57)
35 Raymond Smith Ralvon Tempo Widthdrawn L2 0:00:00 - - 36, 31, 60 (Avg:45)